Time;durP1;ratioP1;P1;durP2;ratioP2;P2;SDS_P1;SDS_P2;PMS_P1;PMS_P2;Temp;Humidity;BMP_temperature;BMP_pressure;BME280_temperature;BME280_humidity;BME280_pressure;Samples;Min_cycle;Max_cycle;Signal;HPM_P1;HPM_P2
2021/01/27 00:01:09;;;;;;;0.73;0.60;;;21.10;46.90;;;;;;5028967;28;20056;-63
2021/01/27 00:03:34;;;;;;;1.33;0.80;;;21.10;47.00;;;;;;5029344;28;20029;-63
2021/01/27 00:06:00;;;;;;;0.98;0.60;;;21.10;47.00;;;;;;5027104;28;20799;-64
2021/01/27 00:08:27;;;;;;;0.90;0.57;;;21.10;47.00;;;;;;5026029;28;20032;-63
2021/01/27 00:10:53;;;;;;;2.55;0.70;;;21.10;47.00;;;;;;5028426;28;20028;-63
2021/01/27 00:13:20;;;;;;;1.58;0.50;;;21.00;47.00;;;;;;5028395;28;20025;-63
2021/01/27 00:15:47;;;;;;;0.57;0.45;;;21.10;47.00;;;;;;5025991;28;20372;-63
2021/01/27 00:18:15;;;;;;;1.15;0.57;;;21.00;47.00;;;;;;5028454;28;20047;-63
2021/01/27 00:20:41;;;;;;;0.77;0.70;;;21.00;47.00;;;;;;5027471;28;20140;-63
2021/01/27 00:23:08;;;;;;;1.25;0.60;;;21.00;47.00;;;;;;5028200;28;20108;-63
2021/01/27 00:25:35;;;;;;;1.20;0.63;;;21.00;47.00;;;;;;5028638;28;20025;-63
2021/01/27 00:28:01;;;;;;;0.75;0.50;;;21.00;47.10;;;;;;5028572;28;20041;-63
2021/01/27 00:30:33;;;;;;;0.77;0.50;;;21.00;47.10;;;;;;5059603;28;20037;-63
2021/01/27 00:32:59;;;;;;;1.08;0.60;;;21.00;47.10;;;;;;5061310;28;20029;-63
2021/01/27 00:35:29;;;;;;;1.15;0.60;;;20.90;47.60;;;;;;5027734;28;20029;-63
2021/01/27 00:37:55;;;;;;;1.30;0.65;;;20.90;47.10;;;;;;5027214;28;20380;-63
2021/01/27 00:40:22;;;;;;;0.93;0.55;;;20.90;47.10;;;;;;5057060;28;20116;-66
2021/01/27 00:42:48;;;;;;;0.70;0.57;;;20.90;47.10;;;;;;5024599;28;20029;-63
2021/01/27 00:45:14;;;;;;;0.88;0.60;;;20.90;47.10;;;;;;5028481;28;20021;-62
2021/01/27 00:47:40;;;;;;;0.82;0.52;;;20.90;47.10;;;;;;5027440;28;20542;-63
2021/01/27 00:50:07;;;;;;;0.75;0.50;;;20.90;47.20;;;;;;5027680;28;20037;-63
2021/01/27 00:52:32;;;;;;;0.70;0.50;;;20.90;47.20;;;;;;5027437;28;20048;-63
2021/01/27 00:54:58;;;;;;;0.65;0.47;;;20.90;47.20;;;;;;5027974;28;20025;-63
2021/01/27 00:57:24;;;;;;;1.20;0.60;;;20.90;47.20;;;;;;5027632;28;20034;-63
2021/01/27 00:59:49;;;;;;;0.77;0.50;;;20.90;47.20;;;;;;5019509;28;20021;-63
2021/01/27 01:02:15;;;;;;;0.45;0.45;;;20.80;47.10;;;;;;5008529;28;20046;-62
2021/01/27 01:04:41;;;;;;;0.65;0.50;;;20.90;47.20;;;;;;5026152;28;20032;-63
2021/01/27 01:07:07;;;;;;;1.00;0.50;;;20.80;47.20;;;;;;5020998;28;20037;-64
2021/01/27 01:09:32;;;;;;;0.77;0.50;;;20.80;47.20;;;;;;5026456;28;20091;-62
2021/01/27 01:11:58;;;;;;;0.45;0.45;;;20.80;47.20;;;;;;5012164;28;20441;-63
2021/01/27 01:14:25;;;;;;;0.95;0.60;;;20.80;47.20;;;;;;5007660;28;20030;-62
2021/01/27 01:16:51;;;;;;;0.70;0.50;;;20.80;47.20;;;;;;5024232;28;20116;-64
2021/01/27 01:19:17;;;;;;;0.82;0.50;;;20.80;47.20;;;;;;5027320;28;20045;-63
2021/01/27 01:21:43;;;;;;;0.68;0.50;;;20.80;47.30;;;;;;5026513;28;20021;-63
2021/01/27 01:24:09;;;;;;;0.50;0.50;;;20.70;47.20;;;;;;5025983;28;20033;-63
2021/01/27 01:26:35;;;;;;;0.60;0.50;;;20.70;47.20;;;;;;5041078;28;20037;-63
2021/01/27 01:29:00;;;;;;;0.80;0.63;;;20.70;47.80;;;;;;5027062;28;20037;-62
2021/01/27 01:31:26;;;;;;;0.82;0.60;;;20.70;47.30;;;;;;5026435;28;20040;-63
2021/01/27 01:33:52;;;;;;;0.77;0.57;;;20.70;47.30;;;;;;5024123;28;20021;-63
2021/01/27 01:36:17;;;;;;;1.00;0.70;;;20.70;47.30;;;;;;5026170;28;20104;-62
2021/01/27 01:38:43;;;;;;;1.05;0.60;;;20.70;47.30;;;;;;5026666;28;20234;-63
2021/01/27 01:41:09;;;;;;;1.00;0.50;;;20.70;47.30;;;;;;5024838;28;20340;-63
2021/01/27 01:43:37;;;;;;;1.25;0.65;;;20.70;47.30;;;;;;5018934;28;20029;-63
2021/01/27 01:46:13;;;;;;;0.98;0.60;;;20.70;47.80;;;;;;5026648;28;20029;-63
2021/01/27 01:49:03;;;;;;;0.80;0.55;;;20.70;47.30;;;;;;5019935;28;20064;-63
2021/01/27 01:51:49;;;;;;;0.50;0.50;;;20.70;47.40;;;;;;5026468;28;20072;-63
2021/01/27 01:54:21;;;;;;;0.50;0.50;;;20.60;47.30;;;;;;5027369;28;20075;-62
2021/01/27 01:56:56;;;;;;;0.57;0.50;;;20.60;47.30;;;;;;5026506;28;20818;-63
2021/01/27 01:59:22;;;;;;;0.52;0.43;;;20.60;47.30;;;;;;5028036;28;20026;-63
2021/01/27 02:01:52;;;;;;;1.17;0.60;;;20.60;47.30;;;;;;5019103;28;20050;-63
2021/01/27 02:04:17;;;;;;;;;;;20.60;47.30;;;;;;5027716;28;20037;-63
2021/01/27 02:06:43;;;;;;;0.57;0.50;;;20.60;47.30;;;;;;5023776;28;20414;-62
2021/01/27 02:09:09;;;;;;;0.40;0.40;;;20.60;47.40;;;;;;5023131;28;20030;-63
2021/01/27 02:11:40;;;;;;;0.98;0.50;;;20.60;47.40;;;;;;5025186;28;20033;-62
2021/01/27 02:14:18;;;;;;;0.93;0.60;;;20.60;47.40;;;;;;5027288;28;20031;-63
2021/01/27 02:17:05;;;;;;;0.90;0.55;;;20.60;47.40;;;;;;5026904;28;20052;-63
2021/01/27 02:19:36;;;;;;;0.60;0.55;;;20.50;47.40;;;;;;5027049;28;20068;-64
2021/01/27 02:22:39;;;;;;;0.60;0.50;;;20.50;47.40;;;;;;5025380;28;20048;-64
2021/01/27 02:25:17;;;;;;;1.05;0.50;;;20.50;47.40;;;;;;5025307;28;20033;-63
2021/01/27 02:27:59;;;;;;;0.80;0.50;;;20.50;47.40;;;;;;5058556;28;20076;-63
2021/01/27 02:30:43;;;;;;;1.45;0.60;;;20.50;47.40;;;;;;5019375;28;20069;-64
2021/01/27 02:33:30;;;;;;;0.55;0.50;;;20.50;47.40;;;;;;5024002;28;20120;-64
2021/01/27 02:36:14;;;;;;;0.57;0.50;;;20.50;47.40;;;;;;5051895;28;20026;-63
2021/01/27 02:39:34;;;;;;;0.60;0.50;;;20.50;47.40;;;;;;5006476;28;20021;-63
2021/01/27 02:42:21;;;;;;;0.50;0.40;;;20.50;47.40;;;;;;5001711;28;20114;-63
2021/01/27 02:44:57;;;;;;;0.50;0.50;;;20.50;47.50;;;;;;5030718;28;20049;-63
2021/01/27 02:47:32;;;;;;;0.70;0.47;;;20.40;47.40;;;;;;5030260;28;20057;-63
2021/01/27 02:50:11;;;;;;;0.43;0.43;;;20.40;47.40;;;;;;5029769;28;20378;-63
2021/01/27 02:52:47;;;;;;;0.40;0.40;;;20.40;47.40;;;;;;5023443;28;20026;-62
2021/01/27 02:55:27;;;;;;;1.67;0.60;;;20.40;47.40;;;;;;5022867;28;20029;-63
2021/01/27 02:58:01;;;;;;;;;;;20.40;47.40;;;;;;5024748;28;20581;-63
2021/01/27 03:00:36;;;;;;;0.60;0.45;;;20.40;47.40;;;;;;5028421;28;19924;-63
2021/01/27 03:03:01;;;;;;;0.43;0.43;;;20.40;47.40;;;;;;5028596;28;20083;-62
2021/01/27 03:05:38;;;;;;;0.60;0.60;;;20.40;47.40;;;;;;5029617;28;20337;-63
2021/01/27 03:08:09;;;;;;;0.40;0.40;;;20.40;47.50;;;;;;5029059;28;20031;-63
2021/01/27 03:10:46;;;;;;;0.82;0.52;;;20.40;47.50;;;;;;5022024;28;20071;-63
2021/01/27 03:13:12;;;;;;;0.50;0.50;;;20.30;47.40;;;;;;5015640;28;20025;-62
2021/01/27 03:15:38;;;;;;;0.40;0.40;;;20.40;47.50;;;;;;5026608;28;20436;-63
2021/01/27 03:18:10;;;;;;;1.58;0.50;;;20.30;47.40;;;;;;5029166;28;20219;-62
2021/01/27 03:20:41;;;;;;;0.40;0.40;;;20.30;47.40;;;;;;5028151;28;20052;-64
2021/01/27 03:23:39;;;;;;;0.52;0.50;;;20.30;47.40;;;;;;5028853;28;20032;-63
2021/01/27 03:26:16;;;;;;;0.63;0.43;;;20.30;47.40;;;;;;4997337;28;20100;-63
2021/01/27 03:28:50;;;;;;;0.43;0.38;;;20.30;47.40;;;;;;5022647;28;20025;-63
2021/01/27 03:31:16;;;;;;;0.88;0.50;;;20.30;47.40;;;;;;5028921;28;20059;-63
2021/01/27 03:33:48;;;;;;;0.43;0.40;;;20.30;47.40;;;;;;5029445;28;20025;-63
2021/01/27 03:36:15;;;;;;;0.40;0.40;;;20.30;47.50;;;;;;5028670;28;20052;-63
2021/01/27 03:38:50;;;;;;;0.80;0.50;;;20.30;47.40;;;;;;5028083;28;20099;-63
2021/01/27 03:41:29;;;;;;;0.63;0.40;;;20.30;47.40;;;;;;5023450;28;20039;-62
2021/01/27 03:44:17;;;;;;;0.55;0.40;;;20.30;47.40;;;;;;5029836;28;20109;-63
2021/01/27 03:47:01;;;;;;;0.60;0.50;;;20.30;47.40;;;;;;5027005;28;20604;-64
2021/01/27 03:49:55;;;;;;;0.73;0.50;;;20.30;47.50;;;;;;5028988;28;20091;-63
2021/01/27 03:52:38;;;;;;;0.47;0.47;;;20.30;47.50;;;;;;5028512;28;20464;-63
2021/01/27 03:55:32;;;;;;;0.50;0.50;;;20.30;47.50;;;;;;5026783;28;20029;-63
2021/01/27 03:58:24;;;;;;;0.52;0.40;;;20.20;47.50;;;;;;5023855;28;20129;-63
2021/01/27 04:00:50;;;;;;;0.80;0.40;;;20.20;47.50;;;;;;5028277;28;20030;-63
2021/01/27 04:03:21;;;;;;;0.47;0.40;;;20.20;47.40;;;;;;5023497;28;20021;-63
2021/01/27 04:05:48;;;;;;;0.70;0.50;;;20.20;47.50;;;;;;5027234;28;20030;-63
2021/01/27 04:08:14;;;;;;;0.95;0.60;;;20.20;47.50;;;;;;5028226;28;20036;-63
2021/01/27 04:10:40;;;;;;;0.68;0.60;;;20.20;47.50;;;;;;5028554;28;20029;-63
2021/01/27 04:13:06;;;;;;;1.30;0.50;;;20.20;47.50;;;;;;5028698;28;20456;-64
2021/01/27 04:15:32;;;;;;;0.50;0.45;;;20.20;47.50;;;;;;5027687;28;20075;-63
2021/01/27 04:17:58;;;;;;;0.65;0.50;;;20.20;47.50;;;;;;5019609;28;20040;-63
2021/01/27 04:20:24;;;;;;;0.50;0.50;;;20.20;47.50;;;;;;5026259;28;20052;-64
2021/01/27 04:22:50;;;;;;;0.90;0.60;;;20.20;47.50;;;;;;5025891;28;20416;-63
2021/01/27 04:25:16;;;;;;;0.77;0.50;;;20.20;47.50;;;;;;5029274;28;20029;-63
2021/01/27 04:27:42;;;;;;;0.40;0.40;;;20.20;47.60;;;;;;5028696;28;20033;-63
2021/01/27 04:30:10;;;;;;;0.60;0.45;;;20.20;47.60;;;;;;5025655;28;20575;-64
2021/01/27 04:32:36;;;;;;;0.60;0.50;;;20.20;47.60;;;;;;5026559;28;20456;-63
2021/01/27 04:35:04;;;;;;;0.60;0.40;;;20.10;47.60;;;;;;5027987;28;20025;-63
2021/01/27 04:37:29;;;;;;;0.60;0.50;;;20.10;47.60;;;;;;5027339;28;20025;-63
2021/01/27 04:39:55;;;;;;;0.45;0.45;;;20.10;47.60;;;;;;5042236;28;20056;-64
2021/01/27 04:42:27;;;;;;;0.43;0.40;;;20.10;47.70;;;;;;5028090;28;20030;-63
2021/01/27 04:44:57;;;;;;;0.40;0.40;;;20.10;47.70;;;;;;5019903;28;20029;-63
2021/01/27 04:47:36;;;;;;;0.73;0.50;;;20.10;47.70;;;;;;5028158;28;20033;-64
2021/01/27 04:50:06;;;;;;;0.40;0.40;;;20.10;47.70;;;;;;5027501;28;20033;-64
2021/01/27 04:52:34;;;;;;;0.68;0.40;;;20.10;47.70;;;;;;5027033;28;20056;-64
2021/01/27 04:55:38;;;;;;;1.30;0.60;;;20.10;47.70;;;;;;5027917;28;20082;-63
2021/01/27 04:58:29;;;;;;;0.77;0.60;;;20.10;48.00;;;;;;4985464;28;20042;-63
2021/01/27 05:01:15;;;;;;;0.68;0.50;;;20.10;47.70;;;;;;5039219;28;20095;-64
2021/01/27 05:04:01;;;;;;;1.02;0.60;;;20.10;47.80;;;;;;5028275;28;20017;-63
2021/01/27 05:06:32;;;;;;;0.57;0.50;;;20.10;47.80;;;;;;5025822;28;20022;-63
2021/01/27 05:09:35;;;;;;;0.80;0.60;;;20.10;47.80;;;;;;5027374;28;20021;-63
2021/01/27 05:12:04;;;;;;;0.55;0.43;;;20.00;47.80;;;;;;5019551;28;20147;-64
2021/01/27 05:14:30;;;;;;;0.60;0.50;;;20.00;47.80;;;;;;5059587;28;20026;-63
2021/01/27 05:16:58;;;;;;;1.63;0.50;;;20.00;47.80;;;;;;5025398;28;20021;-63
2021/01/27 05:19:24;;;;;;;0.73;0.50;;;20.00;47.80;;;;;;5027466;28;20452;-63
2021/01/27 05:21:53;;;;;;;0.60;0.47;;;20.00;47.80;;;;;;5026513;28;20052;-63
2021/01/27 05:24:18;;;;;;;0.60;0.47;;;20.00;47.80;;;;;;5027372;28;20055;-63
2021/01/27 05:26:58;;;;;;;0.60;0.50;;;20.00;47.90;;;;;;5027187;28;20374;-63
2021/01/27 05:29:34;;;;;;;0.50;0.50;;;20.00;47.90;;;;;;5024861;28;20048;-63
2021/01/27 05:32:08;;;;;;;0.68;0.50;;;20.00;47.90;;;;;;5019423;28;20495;-63
2021/01/27 05:34:51;;;;;;;0.65;0.50;;;20.00;47.90;;;;;;5027402;28;20033;-63
2021/01/27 05:37:29;;;;;;;0.82;0.60;;;20.00;47.90;;;;;;5025738;28;20031;-63
2021/01/27 05:40:06;;;;;;;0.68;0.50;;;20.00;47.90;;;;;;5026750;28;20048;-63
2021/01/27 05:42:34;;;;;;;0.68;0.57;;;20.00;47.90;;;;;;5019122;28;20021;-63
2021/01/27 05:45:42;;;;;;;0.50;0.50;;;20.00;47.90;;;;;;5026573;28;20056;-63
2021/01/27 05:48:40;;;;;;;0.70;0.57;;;20.00;48.00;;;;;;4993768;28;20337;-63
2021/01/27 05:51:06;;;;;;;0.52;0.50;;;20.00;48.00;;;;;;4982583;28;20155;-64
2021/01/27 05:53:33;;;;;;;0.50;0.50;;;20.00;48.00;;;;;;5008816;28;20140;-63
2021/01/27 05:56:23;;;;;;;0.60;0.50;;;20.00;48.00;;;;;;5026697;28;20023;-63
2021/01/27 05:59:07;;;;;;;0.93;0.60;;;20.00;48.00;;;;;;5024687;28;20018;-63
2021/01/27 06:01:36;;;;;;;0.80;0.60;;;20.00;48.00;;;;;;5026272;28;20034;-67
2021/01/27 06:04:24;;;;;;;0.40;0.40;;;20.00;48.00;;;;;;5027036;28;20112;-63
2021/01/27 06:06:50;;;;;;;0.50;0.50;;;20.00;48.00;;;;;;5022920;28;20113;-63
2021/01/27 06:09:41;;;;;;;0.43;0.43;;;20.00;48.00;;;;;;5005700;28;20045;-63
2021/01/27 06:12:13;;;;;;;0.40;0.40;;;20.00;48.10;;;;;;5020586;28;20113;-63
2021/01/27 06:14:40;;;;;;;0.68;0.60;;;20.00;48.60;;;;;;5026616;28;20497;-62
2021/01/27 06:17:30;;;;;;;0.60;0.50;;;20.00;48.10;;;;;;5059316;28;20025;-63
2021/01/27 06:20:04;;;;;;;1.02;0.60;;;19.90;48.10;;;;;;5030043;28;20041;-64
2021/01/27 06:22:54;;;;;;;0.40;0.40;;;20.00;48.10;;;;;;5028803;28;20025;-63
2021/01/27 06:25:54;;;;;;;0.60;0.60;;;19.90;48.00;;;;;;5027113;28;20033;-63
2021/01/27 06:28:35;;;;;;;;;;;19.90;48.00;;;;;;5032575;28;20095;-63
2021/01/27 06:31:19;;;;;;;0.75;0.60;;;19.90;48.10;;;;;;5022164;28;19917;-63
2021/01/27 06:34:12;;;;;;;1.10;0.68;;;19.90;48.10;;;;;;5027647;28;20061;-71
2021/01/27 06:37:02;;;;;;;1.00;0.77;;;20.00;49.00;;;;;;5028669;28;20403;-69
2021/01/27 06:39:43;;;;;;;0.80;0.70;;;20.20;49.50;;;;;;5027901;28;20064;-68
2021/01/27 06:42:39;;;;;;;0.88;0.75;;;20.40;49.40;;;;;;5027803;28;20041;-69
2021/01/27 06:45:07;;;;;;;0.98;0.70;;;20.70;49.20;;;;;;5025008;28;20040;-69
2021/01/27 06:47:58;;;;;;;0.75;0.60;;;21.00;48.70;;;;;;5026372;28;20117;-69
2021/01/27 06:50:32;;;;;;;0.90;0.60;;;21.10;48.30;;;;;;5028367;28;20443;-70
2021/01/27 06:53:16;;;;;;;1.00;0.60;;;21.20;48.40;;;;;;5024482;28;20038;-69
2021/01/27 06:55:59;;;;;;;0.80;0.60;;;21.40;48.40;;;;;;5019689;28;20456;-70
2021/01/27 06:58:50;;;;;;;0.88;0.60;;;21.60;48.30;;;;;;5030567;28;20017;-70
2021/01/27 07:01:32;;;;;;;1.05;0.50;;;21.80;48.00;;;;;;5059867;28;20037;-69
2021/01/27 07:04:16;;;;;;;0.60;0.55;;;22.00;47.80;;;;;;5027111;28;20437;-70
2021/01/27 07:07:10;;;;;;;0.77;0.60;;;22.10;47.70;;;;;;5021550;28;20022;-68
2021/01/27 07:09:48;;;;;;;0.60;0.60;;;22.30;47.70;;;;;;5020893;28;20216;-68
2021/01/27 07:12:28;;;;;;;0.60;0.50;;;22.40;47.60;;;;;;5027873;28;20376;-69
2021/01/27 07:15:19;;;;;;;0.60;0.50;;;22.60;47.60;;;;;;5029223;28;20026;-69
2021/01/27 07:17:51;;;;;;;0.55;0.50;;;22.70;47.40;;;;;;5059521;28;20555;-69
2021/01/27 07:20:21;;;;;;;0.50;0.50;;;22.90;47.20;;;;;;5060557;28;20029;-70
2021/01/27 07:22:53;;;;;;;0.70;0.50;;;23.10;47.10;;;;;;5028293;28;20037;-61
2021/01/27 07:25:41;;;;;;;0.82;0.57;;;23.20;46.80;;;;;;5027256;28;20035;-62
2021/01/27 07:28:20;;;;;;;0.95;0.70;;;23.20;44.90;;;;;;5023927;28;20144;-70
2021/01/27 07:30:58;;;;;;;0.93;0.70;;;23.00;44.80;;;;;;5025890;28;20099;-69
2021/01/27 07:33:34;;;;;;;0.52;0.50;;;22.80;45.20;;;;;;5023092;28;20049;-69
2021/01/27 07:36:25;;;;;;;0.45;0.45;;;22.80;45.60;;;;;;5022243;28;20038;-69
2021/01/27 07:38:56;;;;;;;0.85;0.65;;;22.70;45.90;;;;;;5022634;28;20083;-71
2021/01/27 07:41:32;;;;;;;0.45;0.40;;;22.70;46.20;;;;;;5032443;28;20564;-71
2021/01/27 07:44:05;;;;;;;1.13;0.63;;;22.70;46.40;;;;;;5057909;28;20038;-70
2021/01/27 07:46:36;;;;;;;0.60;0.60;;;22.70;46.60;;;;;;5029812;28;20029;-70
2021/01/27 07:49:05;;;;;;;0.70;0.52;;;22.70;46.70;;;;;;5020624;28;20045;-69
2021/01/27 07:51:54;;;;;;;0.80;0.60;;;22.70;46.80;;;;;;5028226;28;20025;-69
2021/01/27 07:54:30;;;;;;;0.80;0.60;;;22.70;46.90;;;;;;5027440;28;20419;-70
2021/01/27 07:57:17;;;;;;;0.95;0.43;;;22.70;47.00;;;;;;5027137;28;20109;-69
2021/01/27 08:00:05;;;;;;;0.60;0.50;;;22.80;47.10;;;;;;5022677;28;20021;-70
2021/01/27 08:02:37;;;;;;;0.50;0.50;;;22.80;47.10;;;;;;5014431;28;20045;-69
2021/01/27 08:05:10;;;;;;;0.75;0.60;;;22.80;47.30;;;;;;5056662;28;20464;-69
2021/01/27 08:07:42;;;;;;;0.60;0.50;;;22.80;47.70;;;;;;5018170;28;20030;-70
2021/01/27 08:10:11;;;;;;;0.60;0.60;;;22.90;47.90;;;;;;5026847;28;20114;-70
2021/01/27 08:12:59;;;;;;;0.50;0.50;;;22.90;47.40;;;;;;5026178;28;20036;-69
2021/01/27 08:15:25;;;;;;;0.50;0.50;;;23.00;47.40;;;;;;5017979;28;20030;-71
2021/01/27 08:17:59;;;;;;;0.52;0.50;;;23.00;47.40;;;;;;5028030;28;20040;-69
2021/01/27 08:20:39;;;;;;;0.60;0.50;;;22.90;47.40;;;;;;5027074;28;20365;-69
2021/01/27 08:23:06;;;;;;;0.52;0.50;;;23.00;47.50;;;;;;5022931;28;20723;-71
2021/01/27 08:25:54;;;;;;;0.70;0.50;;;23.00;47.50;;;;;;5023751;28;20033;-68
2021/01/27 08:28:20;;;;;;;0.50;0.45;;;23.00;47.40;;;;;;5059604;28;20456;-70
2021/01/27 08:31:07;;;;;;;0.57;0.57;;;23.00;47.50;;;;;;5027921;28;20068;-69
2021/01/27 08:33:39;;;;;;;0.90;0.40;;;23.00;47.50;;;;;;5027353;28;20033;-69
2021/01/27 08:36:17;;;;;;;0.90;0.50;;;23.00;47.50;;;;;;5021385;28;20383;-69
2021/01/27 08:38:57;;;;;;;1.20;0.65;;;23.00;47.50;;;;;;5026930;28;20025;-70
2021/01/27 08:41:51;;;;;;;0.73;0.50;;;23.10;47.90;;;;;;5026470;28;20045;-71
2021/01/27 08:44:20;;;;;;;0.50;0.45;;;23.20;47.80;;;;;;5012705;28;20376;-71
2021/01/27 08:47:20;;;;;;;0.90;0.60;;;23.20;47.70;;;;;;5025999;28;20052;-72
2021/01/27 08:49:48;;;;;;;0.70;0.60;;;23.20;47.70;;;;;;5027232;28;20092;-71
2021/01/27 08:52:14;;;;;;;0.63;0.60;;;23.20;47.70;;;;;;5020252;28;20050;-69
2021/01/27 08:54:39;;;;;;;0.50;0.50;;;23.20;47.70;;;;;;5026087;28;20521;-70
2021/01/27 08:57:23;;;;;;;0.43;0.40;;;23.20;47.80;;;;;;5026957;28;20108;-70
2021/01/27 09:00:11;;;;;;;0.73;0.50;;;23.20;47.80;;;;;;5016068;28;20033;-69
2021/01/27 09:03:00;;;;;;;0.43;0.43;;;23.20;47.80;;;;;;4998255;28;20046;-69
2021/01/27 09:05:26;;;;;;;0.60;0.57;;;23.20;47.90;;;;;;5002266;28;20026;-68
2021/01/27 09:08:00;;;;;;;0.80;0.60;;;23.20;47.90;;;;;;5007870;28;20030;-68
2021/01/27 09:10:32;;;;;;;0.73;0.57;;;23.20;48.00;;;;;;5004931;28;20437;-69
2021/01/27 09:12:58;;;;;;;0.68;0.50;;;23.20;48.00;;;;;;5007527;28;20053;-69
2021/01/27 09:15:31;;;;;;;0.60;0.55;;;23.30;48.90;;;;;;5007076;28;20054;-68
2021/01/27 09:17:58;;;;;;;0.57;0.47;;;23.30;48.30;;;;;;5007138;28;20516;-68
2021/01/27 09:20:27;;;;;;;0.88;0.50;;;23.40;48.20;;;;;;5008142;28;20142;-71
2021/01/27 09:23:02;;;;;;;0.55;0.50;;;23.40;48.20;;;;;;5007609;28;20037;-68
2021/01/27 09:25:29;;;;;;;0.40;0.40;;;23.40;48.20;;;;;;4998319;28;20104;-70
2021/01/27 09:28:09;;;;;;;0.88;0.60;;;23.40;48.20;;;;;;5006177;28;20052;-67
2021/01/27 09:30:36;;;;;;;0.70;0.57;;;23.40;48.50;;;;;;5002447;28;20064;-68
2021/01/27 09:33:09;;;;;;;0.73;0.60;;;23.40;48.50;;;;;;5025426;28;20038;-70
2021/01/27 09:35:35;;;;;;;0.40;0.40;;;23.40;48.60;;;;;;5057193;28;20124;-69
2021/01/27 09:38:05;;;;;;;0.80;0.50;;;23.40;48.70;;;;;;5012141;28;20092;-67
2021/01/27 09:40:39;;;;;;;0.90;0.50;;;23.40;48.70;;;;;;5025117;28;20021;-69
2021/01/27 09:43:11;;;;;;;0.50;0.50;;;23.40;48.80;;;;;;5025313;28;20026;-68
2021/01/27 09:45:41;;;;;;;1.40;0.80;;;23.40;48.90;;;;;;5021750;28;20524;-68
2021/01/27 09:48:08;;;;;;;0.55;0.50;;;23.40;49.00;;;;;;5040675;28;20535;-68
2021/01/27 09:50:39;;;;;;;0.60;0.52;;;23.50;49.00;;;;;;5009453;28;20423;-68
2021/01/27 09:53:06;;;;;;;0.50;0.50;;;23.60;49.10;;;;;;5021302;28;20863;-66
2021/01/27 09:55:32;;;;;;;0.80;0.60;;;23.60;49.10;;;;;;5025034;28;20026;-68
2021/01/27 09:58:04;;;;;;;0.68;0.60;;;23.60;49.00;;;;;;5025520;28;20033;-66
2021/01/27 10:00:39;;;;;;;0.68;0.50;;;23.60;49.50;;;;;;5026688;28;20034;-67
2021/01/27 10:03:30;;;;;;;0.60;0.60;;;23.60;49.00;;;;;;5027834;28;20044;-67
2021/01/27 10:05:57;;;;;;;0.57;0.50;;;23.60;49.00;;;;;;5017706;28;20342;-69
2021/01/27 10:08:40;;;;;;;0.40;0.40;;;23.60;48.90;;;;;;5023117;28;20439;-69
2021/01/27 10:11:07;;;;;;;0.50;0.50;;;23.60;48.90;;;;;;5018601;28;20136;-69
2021/01/27 10:13:35;;;;;;;0.60;0.50;;;23.60;48.90;;;;;;5050777;28;20057;-69
2021/01/27 10:16:03;;;;;;;0.50;0.50;;;23.60;49.00;;;;;;5020503;28;20043;-70
2021/01/27 10:18:29;;;;;;;0.70;0.50;;;23.60;48.80;;;;;;5025923;28;20086;-68
2021/01/27 10:21:01;;;;;;;0.50;0.50;;;23.60;49.10;;;;;;5055881;28;20472;-67
2021/01/27 10:23:40;;;;;;;0.50;0.40;;;23.70;49.10;;;;;;5025896;28;20026;-66
2021/01/27 10:26:34;;;;;;;0.93;0.45;;;23.60;49.00;;;;;;5024784;28;20432;-68
2021/01/27 10:29:22;;;;;;;0.50;0.50;;;23.60;48.90;;;;;;5025793;28;20134;-65
2021/01/27 10:31:56;;;;;;;0.70;0.57;;;23.70;49.00;;;;;;5039206;28;20041;-68
2021/01/27 10:34:40;;;;;;;0.63;0.50;;;23.70;49.00;;;;;;5022776;28;20033;-70
2021/01/27 10:37:26;;;;;;;0.43;0.43;;;23.70;49.00;;;;;;5019218;28;20033;-72
2021/01/27 10:40:11;;;;;;;0.50;0.45;;;23.70;49.00;;;;;;5023157;28;20772;-67
2021/01/27 10:42:42;;;;;;;1.00;0.55;;;23.70;49.00;;;;;;5026275;28;20030;-68
2021/01/27 10:45:12;;;;;;;0.50;0.50;;;23.70;48.90;;;;;;5021875;28;20076;-68
2021/01/27 10:47:38;;;;;;;0.43;0.40;;;23.70;48.90;;;;;;5023216;28;20037;-66
2021/01/27 10:50:04;;;;;;;0.40;0.40;;;23.70;49.00;;;;;;5024903;28;20394;-69
2021/01/27 10:52:30;;;;;;;0.40;0.40;;;23.70;49.00;;;;;;5039311;28;20052;-68
2021/01/27 10:55:00;;;;;;;0.50;0.50;;;23.70;48.90;;;;;;5027826;28;20029;-69
2021/01/27 10:57:25;;;;;;;0.43;0.43;;;23.70;49.00;;;;;;5025769;28;20068;-69
2021/01/27 10:59:55;;;;;;;0.40;0.40;;;23.70;48.90;;;;;;5056972;28;20053;-69
2021/01/27 11:02:21;;;;;;;0.50;0.50;;;23.70;48.90;;;;;;5020860;28;20052;-67
2021/01/27 11:04:46;;;;;;;0.57;0.50;;;23.80;48.80;;;;;;5037228;28;20017;-67
2021/01/27 11:07:13;;;;;;;1.40;0.50;;;23.70;48.90;;;;;;5023496;28;20029;-67
2021/01/27 11:09:39;;;;;;;0.68;0.40;;;23.80;49.00;;;;;;5018112;28;20029;-68
2021/01/27 11:12:05;;;;;;;0.60;0.50;;;23.80;49.00;;;;;;5021041;28;20052;-69
2021/01/27 11:14:31;;;;;;;0.73;0.50;;;23.80;48.90;;;;;;5021627;28;20037;-68
2021/01/27 11:16:56;;;;;;;0.75;0.50;;;23.80;48.90;;;;;;5054387;28;20317;-66
2021/01/27 11:19:22;;;;;;;0.73;0.50;;;23.80;48.90;;;;;;5030243;28;20026;-68
2021/01/27 11:21:47;;;;;;;0.82;0.60;;;23.80;49.00;;;;;;5019423;28;20340;-67
2021/01/27 11:24:13;;;;;;;0.40;0.40;;;23.90;48.90;;;;;;5017563;28;20105;-67
2021/01/27 11:26:39;;;;;;;0.40;0.40;;;23.90;49.50;;;;;;5026477;28;20029;-69
2021/01/27 11:29:05;;;;;;;0.55;0.50;;;23.90;49.30;;;;;;5023466;28;20648;-66
2021/01/27 11:31:31;;;;;;;0.73;0.57;;;23.90;49.20;;;;;;5019388;28;20026;-68
2021/01/27 11:33:57;;;;;;;0.65;0.40;;;23.90;49.30;;;;;;5036809;28;20026;-69
2021/01/27 11:36:24;;;;;;;1.13;0.40;;;23.90;49.40;;;;;;5019067;28;20033;-69
2021/01/27 11:38:51;;;;;;;0.75;0.52;;;23.90;49.30;;;;;;5023206;28;20096;-69
2021/01/27 11:41:18;;;;;;;0.88;0.70;;;23.90;49.50;;;;;;5016658;28;20037;-69
2021/01/27 11:43:45;;;;;;;2.92;1.00;;;23.90;47.30;;;;;;5017910;28;20037;-71
2021/01/27 11:46:16;;;;;;;1.77;1.00;;;23.80;45.20;;;;;;5017900;28;20025;-70
2021/01/27 11:48:42;;;;;;;2.08;1.15;;;23.80;45.20;;;;;;5024410;28;20045;-69
2021/01/27 11:51:09;;;;;;;1.27;0.77;;;23.70;45.30;;;;;;5014364;28;20515;-69
2021/01/27 11:53:36;;;;;;;1.40;0.85;;;23.70;45.60;;;;;;5019703;28;20029;-68
2021/01/27 11:56:02;;;;;;;1.70;0.93;;;23.70;45.80;;;;;;5028180;28;20942;-71
2021/01/27 11:58:30;;;;;;;1.50;0.90;;;23.70;46.10;;;;;;5029056;28;20025;-69
2021/01/27 12:00:56;;;;;;;2.03;1.00;;;23.70;46.40;;;;;;5028340;28;20064;-68
2021/01/27 12:03:22;;;;;;;1.40;0.80;;;23.80;46.70;;;;;;5021094;28;20034;-70
2021/01/27 12:05:48;;;;;;;1.17;0.82;;;23.80;46.90;;;;;;5026164;28;20075;-70
2021/01/27 12:08:15;;;;;;;1.60;0.80;;;23.80;47.10;;;;;;5026686;28;20095;-69
2021/01/27 12:10:41;;;;;;;1.13;0.73;;;23.90;47.50;;;;;;5028692;28;20036;-67
2021/01/27 12:13:06;;;;;;;1.13;0.75;;;23.90;47.50;;;;;;5027003;28;20389;-69
2021/01/27 12:15:32;;;;;;;2.25;0.80;;;23.90;47.60;;;;;;5027881;28;20097;-67
2021/01/27 12:17:58;;;;;;;1.50;0.90;;;23.90;47.80;;;;;;5028579;28;20033;-69
2021/01/27 12:20:24;;;;;;;1.10;0.80;;;23.90;47.70;;;;;;5027022;28;20030;-67
2021/01/27 12:22:50;;;;;;;0.93;0.80;;;23.90;48.20;;;;;;5028648;28;20045;-70
2021/01/27 12:25:16;;;;;;;0.77;0.60;;;24.00;48.40;;;;;;5026843;28;20445;-68
2021/01/27 12:27:42;;;;;;;1.60;0.77;;;24.00;48.50;;;;;;5027380;28;20033;-69
2021/01/27 12:30:10;;;;;;;1.15;0.73;;;24.00;49.10;;;;;;5026297;28;20084;-72
2021/01/27 12:32:36;;;;;;;1.17;0.80;;;24.00;48.60;;;;;;5021922;28;20041;-69
2021/01/27 12:35:03;;;;;;;1.17;0.80;;;24.00;48.60;;;;;;5026885;28;20034;-69
2021/01/27 12:37:29;;;;;;;1.30;0.80;;;24.10;48.50;;;;;;5028478;28;20025;-69
2021/01/27 12:39:54;;;;;;;0.85;0.70;;;24.10;48.80;;;;;;5027249;28;20033;-69
2021/01/27 12:42:20;;;;;;;1.35;0.80;;;24.10;48.90;;;;;;5023692;28;20052;-69
2021/01/27 12:44:46;;;;;;;1.35;0.80;;;24.10;48.90;;;;;;5028933;28;20074;-71
2021/01/27 12:47:12;;;;;;;1.10;0.70;;;24.10;49.00;;;;;;5027889;28;20033;-68
2021/01/27 12:49:39;;;;;;;1.88;0.80;;;24.10;48.70;;;;;;5016432;28;20449;-68
2021/01/27 12:52:06;;;;;;;1.13;0.65;;;24.10;48.90;;;;;;5020554;28;20356;-68
2021/01/27 12:54:32;;;;;;;1.05;0.70;;;24.10;49.00;;;;;;5059468;28;20111;-70
2021/01/27 12:56:57;;;;;;;2.20;0.90;;;24.20;49.30;;;;;;5029082;28;20088;-68
2021/01/27 12:59:23;;;;;;;1.33;0.70;;;24.10;49.10;;;;;;5029051;28;20033;-68
2021/01/27 13:01:49;;;;;;;1.13;0.70;;;24.20;49.20;;;;;;5028152;28;20048;-71
2021/01/27 13:04:15;;;;;;;1.10;0.70;;;24.20;49.10;;;;;;5024703;28;20077;-68
2021/01/27 13:06:40;;;;;;;1.27;0.80;;;24.20;49.30;;;;;;5026497;28;20140;-68
2021/01/27 13:09:06;;;;;;;1.42;0.85;;;24.20;49.00;;;;;;5027962;28;20768;-66
2021/01/27 13:11:32;;;;;;;2.10;0.70;;;24.20;49.30;;;;;;5060388;28;20104;-65
2021/01/27 13:13:57;;;;;;;1.05;0.77;;;24.20;49.40;;;;;;5015583;28;20045;-69
2021/01/27 13:16:23;;;;;;;0.85;0.60;;;24.20;49.60;;;;;;5024395;28;20024;-65
2021/01/27 13:18:49;;;;;;;1.48;0.80;;;24.20;49.30;;;;;;5027816;28;20099;-67